Huvudsida
METAR-TAF:

METAR-TAF

Flygplatser :

Vladivostok, Ryssland

latitud: 43-07N, longitud: 131-56E, höjd: 184 m

Aktuellt väderrapport

Denna rapport gjordes för 35 minuter sedan, klockan 22:30 UTC
Vind 6 kt från väst/sydväst
Temperatur -21°C
Fuktighet 84%
Tryck 1017 hPa
Sikt: 9000 m

METAR: UHWW 192230Z 25003MPS 9000 NSC M21/M23 Q1017 R25L/0///70 NOSIG RMK QFE761

Tid: 09:05 (23:05 UTC)

Väderprognos

Denna rapport gjordes för 3 timmar och 5 minuter sedan, klockan 20:00 UTC
Prognos gäller från 19 kl. 21 UTC till 20 kl. 21 UTC
Vind 6 kt från väst/sydväst
Sikt 10 km eller mer
Spridda moln på en höjd av 3000 ft
Blir
från 20 kl. 00 UTC till 20 kl. 02 UTC
Vind 6 kt från nord/nordväst
Temporärt
från 20 kl. 02 UTC till 20 kl. 09 UTC
Vind 17 kt från nord
Brutna moln på en höjd av 2500 ft

TAF: UHWW 192000Z 1921/2021 25003MPS 9999 SCT030 BECMG 2000/2002 34003MPS TEMPO 2002/2009 35009MPS BKN025

Aktuella väderrapporter och prognoser från 4000 flygplatser (METAR- och TAF-rapporter).

De tillgängliga stationerna syns som gula och röda prickar på kartan.

För musen över prickarna för att se namnen på stationerna.

Klicka sedan för att få väderrapporter och prognoser.

För att ändra kartan: Klicka på de gröna knapparna med ett svart kors på för att zooma in; den gröna knappen med ett streck på för att zooma ut; eller på de gröna pilarna för angränsande kartor.


METAR-TAF: